createdAt,value
2019-03-31T00:01:13.736Z,10.80
2019-03-31T00:03:32.795Z,9.33
2019-03-31T00:05:59.465Z,10.03
2019-03-31T00:08:27.108Z,9.13
2019-03-31T00:10:53.701Z,9.90
2019-03-31T00:13:20.354Z,9.57
2019-03-31T00:15:47.956Z,10.00
2019-03-31T00:18:14.676Z,9.40
2019-03-31T00:20:42.529Z,9.33
2019-03-31T00:25:56.068Z,10.18
2019-03-31T00:28:22.900Z,9.80
2019-03-31T00:30:50.160Z,9.30
2019-03-31T00:33:16.875Z,10.63
2019-03-31T00:35:43.941Z,9.55
2019-03-31T00:38:10.813Z,9.23
2019-03-31T00:40:37.526Z,9.43
2019-03-31T00:43:04.147Z,9.73
2019-03-31T00:45:30.746Z,9.77
2019-03-31T00:47:57.761Z,9.85
2019-03-31T00:50:24.375Z,9.57
2019-03-31T00:52:51.426Z,10.63
2019-03-31T00:55:18.326Z,10.17
2019-03-31T00:57:45.326Z,10.17
2019-03-31T01:00:12.020Z,9.60
2019-03-31T01:02:38.699Z,9.53
2019-03-31T01:05:05.401Z,9.33
2019-03-31T01:07:32.020Z,9.60
2019-03-31T01:09:58.679Z,9.97
2019-03-31T01:12:25.285Z,10.27
2019-03-31T01:14:52.254Z,9.83
2019-03-31T01:17:19.290Z,10.40
2019-03-31T01:19:46.105Z,10.40
2019-03-31T01:22:12.726Z,9.80
2019-03-31T01:24:39.749Z,10.50
2019-03-31T01:27:06.343Z,10.60
2019-03-31T01:29:33.275Z,10.23
2019-03-31T01:32:00.104Z,10.67
2019-03-31T01:34:26.744Z,9.70
2019-03-31T01:36:53.712Z,10.45
2019-03-31T01:39:21.493Z,10.27
2019-03-31T01:41:48.288Z,9.77
2019-03-31T01:44:14.975Z,10.40
2019-03-31T01:46:41.645Z,10.13
2019-03-31T01:49:08.406Z,10.33
2019-03-31T01:51:35.013Z,10.63
2019-03-31T01:54:01.919Z,10.15
2019-03-31T01:56:28.686Z,8.77
2019-03-31T01:58:55.578Z,10.10
2019-03-31T02:01:22.446Z,9.40
2019-03-31T02:03:49.439Z,10.00
2019-03-31T02:06:16.331Z,9.33
2019-03-31T02:08:43.582Z,10.00
2019-03-31T02:11:10.405Z,10.33
2019-03-31T02:13:37.063Z,10.77
2019-03-31T02:16:03.887Z,10.13
2019-03-31T02:18:30.509Z,10.30
2019-03-31T02:23:43.064Z,9.83
2019-03-31T02:26:10.050Z,9.33
2019-03-31T02:28:36.670Z,8.70
2019-03-31T02:31:03.496Z,9.63
2019-03-31T02:33:30.183Z,8.70
2019-03-31T02:35:56.819Z,9.13
2019-03-31T02:38:23.663Z,9.23
2019-03-31T02:40:50.332Z,9.67
2019-03-31T02:43:17.359Z,10.68
2019-03-31T02:45:43.966Z,9.83
2019-03-31T02:48:10.923Z,8.45
2019-03-31T02:50:37.581Z,9.97
2019-03-31T02:53:06.325Z,9.93
2019-03-31T02:55:32.872Z,9.90
2019-03-31T02:57:59.753Z,9.97
2019-03-31T03:00:26.382Z,10.07
2019-03-31T03:02:53.062Z,10.67
2019-03-31T03:05:20.507Z,10.17
2019-03-31T03:07:49.176Z,8.33
2019-03-31T03:10:16.086Z,8.95
2019-03-31T03:12:42.667Z,9.03
2019-03-31T03:15:09.957Z,10.37
2019-03-31T03:17:36.858Z,9.30
2019-03-31T03:20:03.578Z,8.90
2019-03-31T03:22:30.209Z,10.30
2019-03-31T03:24:56.878Z,9.37
2019-03-31T03:27:23.526Z,9.70
2019-03-31T03:29:50.236Z,8.00
2019-03-31T03:32:17.119Z,10.10
2019-03-31T03:34:43.705Z,8.90
2019-03-31T03:37:10.299Z,10.20
2019-03-31T03:39:36.919Z,9.53
2019-03-31T03:42:05.182Z,8.70
2019-03-31T03:44:31.979Z,10.43
2019-03-31T03:46:58.576Z,8.20
2019-03-31T03:49:25.651Z,9.33
2019-03-31T03:51:52.262Z,8.87
2019-03-31T03:54:19.349Z,10.35
2019-03-31T03:56:45.958Z,8.90
2019-03-31T03:59:12.626Z,8.70
2019-03-31T04:01:39.248Z,8.07
2019-03-31T04:04:07.226Z,9.93
2019-03-31T04:06:34.173Z,9.30
2019-03-31T04:09:00.803Z,10.27
2019-03-31T04:11:27.459Z,9.98
2019-03-31T04:13:54.162Z,9.03
2019-03-31T04:16:20.825Z,9.83
2019-03-31T04:18:47.422Z,9.87
2019-03-31T04:21:14.322Z,9.70
2019-03-31T04:23:41.039Z,10.00
2019-03-31T04:26:08.394Z,8.57
2019-03-31T04:28:35.092Z,9.60
2019-03-31T04:31:01.668Z,10.43
2019-03-31T04:33:28.344Z,8.83
2019-03-31T04:35:54.988Z,10.03
2019-03-31T04:38:22.177Z,10.32
2019-03-31T04:40:49.020Z,9.10
2019-03-31T04:43:16.879Z,8.80
2019-03-31T04:45:43.605Z,9.27
2019-03-31T04:48:10.570Z,9.57
2019-03-31T04:50:38.034Z,9.40
2019-03-31T04:53:04.654Z,9.10
2019-03-31T04:55:31.536Z,8.50
2019-03-31T04:57:58.610Z,9.00
2019-03-31T05:00:25.268Z,8.33
2019-03-31T05:02:51.878Z,8.50
2019-03-31T05:05:18.819Z,8.77
2019-03-31T05:07:45.407Z,8.77
2019-03-31T05:10:12.377Z,9.63
2019-03-31T05:12:39.121Z,9.90
2019-03-31T05:15:05.818Z,9.50
2019-03-31T05:17:35.612Z,10.03
2019-03-31T05:20:01.353Z,9.67
2019-03-31T05:22:28.191Z,8.43
2019-03-31T05:24:54.786Z,9.20
2019-03-31T05:27:21.696Z,9.25
2019-03-31T05:29:48.477Z,10.63
2019-03-31T05:32:15.102Z,10.03
2019-03-31T05:34:42.030Z,8.55
2019-03-31T05:37:08.726Z,9.70
2019-03-31T05:39:35.297Z,9.15
2019-03-31T05:42:01.957Z,10.10
2019-03-31T05:44:28.924Z,8.93
2019-03-31T05:46:55.768Z,9.77
2019-03-31T05:49:22.680Z,9.37
2019-03-31T05:51:49.585Z,10.83
2019-03-31T05:54:16.626Z,9.27
2019-03-31T05:56:43.872Z,8.87
2019-03-31T05:59:10.475Z,9.50
2019-03-31T06:01:37.122Z,9.80
2019-03-31T06:04:03.723Z,9.27
2019-03-31T06:06:30.598Z,9.15
2019-03-31T06:08:57.446Z,9.10
2019-03-31T06:11:24.194Z,9.48
2019-03-31T06:13:50.955Z,8.63
2019-03-31T06:16:19.005Z,9.40
2019-03-31T06:18:45.613Z,8.90
2019-03-31T06:24:01.952Z,8.03
2019-03-31T06:26:30.926Z,8.67
2019-03-31T06:31:47.448Z,9.53
2019-03-31T06:34:15.603Z,7.90
2019-03-31T06:36:46.141Z,7.87
2019-03-31T06:39:39.236Z,7.97
2019-03-31T06:41:48.444Z,7.97
2019-03-31T06:44:18.348Z,7.97
2019-03-31T06:49:35.160Z,7.53
2019-03-31T06:52:05.288Z,8.23
2019-03-31T06:54:35.052Z,8.43
2019-03-31T06:57:02.398Z,7.57
2019-03-31T06:59:31.511Z,7.95
2019-03-31T07:02:03.281Z,7.97
2019-03-31T07:04:33.914Z,6.83
2019-03-31T07:07:03.064Z,7.23
2019-03-31T07:09:34.477Z,7.00
2019-03-31T07:12:04.210Z,6.73
2019-03-31T07:14:33.828Z,6.80
2019-03-31T07:17:01.499Z,7.43
2019-03-31T07:19:43.990Z,7.03
2019-03-31T07:22:15.005Z,6.97
2019-03-31T07:24:42.723Z,6.87
2019-03-31T07:27:10.311Z,6.23
2019-03-31T07:29:40.706Z,6.63
2019-03-31T07:32:14.186Z,6.23
2019-03-31T07:34:43.538Z,6.50
2019-03-31T07:40:00.241Z,6.00
2019-03-31T07:42:27.836Z,6.33
2019-03-31T07:44:58.555Z,6.93
2019-03-31T07:47:26.378Z,7.33
2019-03-31T07:49:55.011Z,7.10
2019-03-31T07:52:22.931Z,7.00
2019-03-31T07:54:52.867Z,6.93
2019-03-31T07:57:22.459Z,6.93
2019-03-31T07:59:50.201Z,7.63
2019-03-31T08:02:19.833Z,7.53
2019-03-31T08:04:47.656Z,7.87
2019-03-31T08:07:18.278Z,7.50
2019-03-31T08:09:47.873Z,7.10
2019-03-31T08:15:02.550Z,7.90
2019-03-31T08:17:32.355Z,8.60
2019-03-31T08:20:00.362Z,8.20
2019-03-31T08:27:45.634Z,9.13
2019-03-31T08:30:12.455Z,10.63
2019-03-31T08:32:39.077Z,9.75
2019-03-31T08:35:05.830Z,10.13
2019-03-31T08:37:32.749Z,9.75
2019-03-31T08:39:59.478Z,9.83
2019-03-31T08:42:26.364Z,10.10
2019-03-31T08:44:53.020Z,11.13
2019-03-31T08:47:20.142Z,10.87
2019-03-31T08:49:46.957Z,10.30
2019-03-31T08:52:13.612Z,10.50
2019-03-31T08:54:40.525Z,10.33
2019-03-31T08:57:07.522Z,10.83
2019-03-31T08:59:34.440Z,11.83
2019-03-31T09:02:03.241Z,12.17
2019-03-31T09:04:30.645Z,11.70
2019-03-31T09:06:57.489Z,11.63
2019-03-31T09:09:24.155Z,11.03
2019-03-31T09:11:50.969Z,12.07
2019-03-31T09:14:17.630Z,11.70
2019-03-31T09:16:44.657Z,11.07
2019-03-31T09:19:11.329Z,11.47
2019-03-31T09:21:38.467Z,12.50
2019-03-31T09:24:05.208Z,11.43
2019-03-31T09:26:31.830Z,11.00
2019-03-31T09:28:58.467Z,11.13
2019-03-31T09:31:25.089Z,12.23
2019-03-31T09:33:51.852Z,11.53
2019-03-31T09:36:18.898Z,11.03
2019-03-31T09:38:48.553Z,11.95
2019-03-31T09:41:14.976Z,11.47
2019-03-31T09:43:41.829Z,12.15
2019-03-31T09:46:08.402Z,11.03
2019-03-31T09:48:35.420Z,10.80
2019-03-31T09:51:02.077Z,11.70
2019-03-31T09:53:29.883Z,11.80
2019-03-31T09:55:56.779Z,11.60
2019-03-31T10:12:16.322Z,12.17
2019-03-31T10:14:44.258Z,12.20
2019-03-31T10:17:10.898Z,11.95
2019-03-31T10:25:13.453Z,11.05
2019-03-31T10:27:40.469Z,11.57
2019-03-31T10:30:07.887Z,11.38
2019-03-31T10:32:34.804Z,13.07
2019-03-31T10:35:02.913Z,11.97
2019-03-31T10:37:29.795Z,12.50
2019-03-31T10:39:56.793Z,11.20
2019-03-31T10:42:23.732Z,11.93
2019-03-31T10:44:50.719Z,11.43
2019-03-31T10:47:17.384Z,12.17
2019-03-31T10:49:44.586Z,12.07
2019-03-31T10:52:12.568Z,11.03
2019-03-31T10:54:39.795Z,12.50
2019-03-31T10:57:07.746Z,11.53
2019-03-31T10:59:34.645Z,10.93
2019-03-31T11:02:01.535Z,11.63
2019-03-31T11:04:28.423Z,13.87
2019-03-31T11:06:59.655Z,13.63
2019-03-31T11:09:23.940Z,12.17
2019-03-31T11:11:50.828Z,11.13
2019-03-31T11:14:17.758Z,10.45
2019-03-31T11:16:44.678Z,11.03
2019-03-31T11:19:11.469Z,10.33
2019-03-31T11:21:40.375Z,10.40
2019-03-31T11:24:06.987Z,9.90
2019-03-31T11:26:33.890Z,10.03
2019-03-31T11:29:01.060Z,9.58
2019-03-31T11:31:29.817Z,10.17
2019-03-31T11:33:56.724Z,12.30
2019-03-31T11:36:23.637Z,10.50
2019-03-31T11:41:24.299Z,9.80
2019-03-31T11:46:40.579Z,9.67
2019-03-31T11:49:09.886Z,9.00
2019-03-31T11:51:37.824Z,11.53
2019-03-31T11:54:07.625Z,9.35
2019-03-31T11:56:35.797Z,9.73
2019-03-31T11:59:11.004Z,8.80
2019-03-31T12:01:40.433Z,10.60
2019-03-31T12:04:10.336Z,9.87
2019-03-31T12:06:39.804Z,9.33
2019-03-31T12:09:09.091Z,10.37
2019-03-31T12:11:37.684Z,9.20
2019-03-31T12:14:05.402Z,8.95
2019-03-31T12:16:32.718Z,10.53
2019-03-31T12:19:02.880Z,9.10
2019-03-31T12:24:21.480Z,9.67
2019-03-31T12:29:36.673Z,9.60
2019-03-31T12:32:11.522Z,9.67
2019-03-31T12:37:26.520Z,9.37
2019-03-31T12:39:55.904Z,9.57
2019-03-31T12:42:23.554Z,8.65
2019-03-31T12:44:57.965Z,9.10
2019-03-31T12:47:25.363Z,9.47
2019-03-31T12:50:04.622Z,8.38
2019-03-31T12:52:46.092Z,9.40
2019-03-31T12:55:06.639Z,15.07
2019-03-31T12:57:35.967Z,11.03
2019-03-31T13:00:10.052Z,8.23
2019-03-31T13:02:38.683Z,8.83
2019-03-31T13:05:08.295Z,7.65
2019-03-31T13:07:55.312Z,7.83
2019-03-31T13:10:12.467Z,8.47
2019-03-31T13:12:46.077Z,7.78
2019-03-31T13:18:05.457Z,6.83
2019-03-31T13:20:37.038Z,6.80
2019-03-31T13:25:54.767Z,12.73
2019-03-31T13:28:34.235Z,29.73
2019-03-31T13:36:40.792Z,6.90
2019-03-31T13:39:09.776Z,7.17
2019-03-31T13:41:40.324Z,6.77
2019-03-31T13:44:10.078Z,7.30
2019-03-31T13:46:41.642Z,7.15
2019-03-31T13:49:13.359Z,8.00
2019-03-31T13:51:43.026Z,6.70
2019-03-31T13:54:12.273Z,6.47
2019-03-31T13:56:40.157Z,6.63
2019-03-31T13:59:09.206Z,7.12
2019-03-31T14:04:23.199Z,7.45
2019-03-31T14:09:42.204Z,6.43
2019-03-31T14:12:21.923Z,6.27
2019-03-31T14:14:53.693Z,6.07
2019-03-31T14:17:24.628Z,6.87
2019-03-31T14:19:53.747Z,5.47
2019-03-31T14:22:21.902Z,6.47
2019-03-31T14:24:50.186Z,6.27
2019-03-31T14:27:16.734Z,6.67
2019-03-31T14:29:46.772Z,6.83
2019-03-31T14:32:25.144Z,6.83
2019-03-31T14:34:53.881Z,6.03
2019-03-31T14:37:26.009Z,6.83
2019-03-31T14:39:56.662Z,6.97
2019-03-31T14:45:11.389Z,6.87
2019-03-31T14:53:18.663Z,6.53
2019-03-31T14:58:36.956Z,6.90
2019-03-31T15:03:58.140Z,5.90
2019-03-31T15:06:28.708Z,7.03
2019-03-31T15:09:00.080Z,6.80
2019-03-31T15:11:28.097Z,6.27
2019-03-31T15:13:59.728Z,5.57
2019-03-31T15:16:28.093Z,6.03
2019-03-31T15:21:44.487Z,6.40
2019-03-31T15:24:16.670Z,5.67
2019-03-31T15:26:48.404Z,6.60
2019-03-31T15:32:04.438Z,7.00
2019-03-31T15:34:35.436Z,6.22
2019-03-31T15:42:47.143Z,6.60
2019-03-31T15:45:24.405Z,6.40
2019-03-31T15:47:57.380Z,6.07
2019-03-31T15:50:26.847Z,5.83
2019-03-31T15:55:37.031Z,5.78
2019-03-31T15:58:05.412Z,6.23
2019-03-31T16:03:30.224Z,5.70
2019-03-31T16:08:44.821Z,5.80
2019-03-31T16:11:16.887Z,5.33
2019-03-31T16:13:45.220Z,5.90
2019-03-31T16:16:26.144Z,5.97
2019-03-31T16:18:49.162Z,6.50
2019-03-31T16:21:18.398Z,6.00
2019-03-31T16:26:22.928Z,5.77
2019-03-31T16:29:03.504Z,5.80
2019-03-31T16:34:21.406Z,5.40
2019-03-31T16:39:50.036Z,5.70
2019-03-31T16:42:25.947Z,5.73
2019-03-31T16:44:58.415Z,5.78
2019-03-31T16:47:25.801Z,6.30
2019-03-31T16:49:53.404Z,5.80
2019-03-31T16:52:22.586Z,6.10
2019-03-31T16:54:55.065Z,5.90
2019-03-31T16:57:27.672Z,6.13
2019-03-31T17:00:04.089Z,5.93
2019-03-31T17:02:29.893Z,6.30
2019-03-31T17:05:01.205Z,5.65
2019-03-31T17:07:42.272Z,6.63
2019-03-31T17:10:27.146Z,5.45
2019-03-31T17:12:57.581Z,5.97
2019-03-31T17:22:55.078Z,5.97
2019-03-31T17:25:27.766Z,4.90
2019-03-31T17:27:54.801Z,6.03
2019-03-31T17:30:22.920Z,5.40
2019-03-31T17:32:49.832Z,5.45
2019-03-31T17:35:22.979Z,5.80
2019-03-31T17:37:50.290Z,5.63
2019-03-31T17:40:20.032Z,5.10
2019-03-31T17:42:48.759Z,5.53
2019-03-31T17:45:18.061Z,5.63
2019-03-31T17:47:59.652Z,6.07
2019-03-31T17:50:18.504Z,5.87
2019-03-31T17:53:04.602Z,5.67
2019-03-31T17:56:40.860Z,6.87
2019-03-31T17:58:00.820Z,5.30
2019-03-31T18:00:28.119Z,5.20
2019-03-31T18:03:20.024Z,5.15
2019-03-31T18:05:43.951Z,5.50
2019-03-31T18:08:10.926Z,6.13
2019-03-31T18:10:37.515Z,5.60
2019-03-31T18:13:07.321Z,6.40
2019-03-31T18:15:34.205Z,6.10
2019-03-31T18:18:00.976Z,7.20
2019-03-31T18:20:27.915Z,6.50
2019-03-31T18:22:54.534Z,7.20
2019-03-31T18:25:22.735Z,7.67
2019-03-31T18:27:50.216Z,7.90
2019-03-31T18:30:17.083Z,7.40
2019-03-31T18:32:43.806Z,6.60
2019-03-31T18:35:10.448Z,6.73
2019-03-31T18:37:37.637Z,6.47
2019-03-31T18:40:04.268Z,6.00
2019-03-31T18:42:30.941Z,6.93
2019-03-31T18:44:57.999Z,6.85
2019-03-31T18:47:24.610Z,7.03
2019-03-31T18:49:53.479Z,6.87
2019-03-31T18:52:20.066Z,7.03
2019-03-31T18:54:47.175Z,7.13
2019-03-31T18:57:13.803Z,7.77
2019-03-31T18:59:40.403Z,7.70
2019-03-31T19:04:51.669Z,6.57
2019-03-31T19:07:19.294Z,7.33
2019-03-31T19:09:49.964Z,7.67
2019-03-31T19:12:16.987Z,6.57
2019-03-31T19:14:45.227Z,7.57
2019-03-31T19:17:16.398Z,8.30
2019-03-31T19:19:43.676Z,8.10
2019-03-31T19:24:58.179Z,7.53
2019-03-31T19:27:29.975Z,8.53
2019-03-31T19:30:00.595Z,7.63
2019-03-31T19:32:41.059Z,7.53
2019-03-31T19:37:48.568Z,7.40
2019-03-31T19:40:16.211Z,6.93
2019-03-31T19:42:51.840Z,7.20
2019-03-31T19:45:37.945Z,8.53
2019-03-31T19:48:10.862Z,7.10
2019-03-31T19:50:37.445Z,7.47
2019-03-31T19:53:04.280Z,7.60
2019-03-31T19:55:31.156Z,9.43
2019-03-31T20:00:48.155Z,10.43
2019-03-31T20:03:14.986Z,9.93
2019-03-31T20:05:44.855Z,8.73
2019-03-31T20:08:14.001Z,15.00
2019-03-31T20:10:40.871Z,12.07
2019-03-31T20:13:10.651Z,12.10
2019-03-31T20:15:37.029Z,11.67
2019-03-31T20:18:23.139Z,11.47
2019-03-31T20:20:50.774Z,11.70
2019-03-31T20:23:18.488Z,10.83
2019-03-31T20:25:48.425Z,10.23
2019-03-31T20:28:15.792Z,10.40
2019-03-31T20:30:43.444Z,9.77
2019-03-31T20:33:11.125Z,9.77
2019-03-31T20:35:40.542Z,9.80
2019-03-31T20:38:07.931Z,10.13
2019-03-31T20:41:03.084Z,9.48
2019-03-31T20:43:32.730Z,10.00
2019-03-31T20:46:04.288Z,9.43
2019-03-31T20:48:32.972Z,9.00
2019-03-31T20:51:00.712Z,9.03
2019-03-31T20:53:30.278Z,9.30
2019-03-31T20:55:59.225Z,9.20
2019-03-31T21:01:01.796Z,9.08
2019-03-31T21:06:21.129Z,9.33
2019-03-31T21:08:47.750Z,9.87
2019-03-31T21:11:15.538Z,11.43
2019-03-31T21:13:46.633Z,12.80
2019-03-31T21:16:16.598Z,13.80
2019-03-31T21:18:44.304Z,13.50
2019-03-31T21:23:44.287Z,13.53
2019-03-31T21:26:11.145Z,15.33
2019-03-31T21:28:38.133Z,24.73
2019-03-31T21:31:05.177Z,18.02
2019-03-31T21:33:46.415Z,15.23
2019-03-31T21:36:14.346Z,14.80
2019-03-31T21:38:41.055Z,13.63
2019-03-31T21:41:08.805Z,13.40
2019-03-31T21:43:36.896Z,12.33
2019-03-31T21:46:03.942Z,11.05
2019-03-31T21:48:30.619Z,11.33
2019-03-31T21:50:57.923Z,11.40
2019-03-31T21:53:25.099Z,11.40
2019-03-31T21:55:51.745Z,11.50
2019-03-31T21:58:18.524Z,10.27
2019-03-31T22:00:45.357Z,10.23
2019-03-31T22:03:12.067Z,11.03
2019-03-31T22:05:39.061Z,10.53
2019-03-31T22:08:06.028Z,10.80
2019-03-31T22:10:32.698Z,10.50
2019-03-31T22:12:59.851Z,10.07
2019-03-31T22:15:27.477Z,10.60
2019-03-31T22:17:54.084Z,9.60
2019-03-31T22:20:21.004Z,10.77
2019-03-31T22:22:48.686Z,10.70
2019-03-31T22:25:16.339Z,9.85
2019-03-31T22:27:43.089Z,11.33
2019-03-31T22:30:10.050Z,10.90
2019-03-31T22:32:37.692Z,10.90
2019-03-31T22:35:05.291Z,9.73
2019-03-31T22:37:35.223Z,10.97
2019-03-31T22:40:02.114Z,9.87
2019-03-31T22:42:29.434Z,10.13
2019-03-31T22:44:57.220Z,10.60
2019-03-31T22:47:24.824Z,10.40
2019-03-31T22:49:53.418Z,11.43
2019-03-31T22:52:20.148Z,10.87
2019-03-31T22:54:46.991Z,10.03
2019-03-31T22:57:14.134Z,10.48
2019-03-31T22:59:40.824Z,10.10
2019-03-31T23:02:08.708Z,10.50
2019-03-31T23:04:37.426Z,10.10
2019-03-31T23:09:50.077Z,9.07
2019-03-31T23:12:17.127Z,9.83
2019-03-31T23:14:44.800Z,9.40
2019-03-31T23:17:12.116Z,9.10
2019-03-31T23:19:42.901Z,9.50
2019-03-31T23:24:55.373Z,11.13
2019-03-31T23:27:22.020Z,9.27
2019-03-31T23:29:48.597Z,9.73
2019-03-31T23:32:15.859Z,10.00
2019-03-31T23:34:42.454Z,9.77
2019-03-31T23:37:09.342Z,8.77
2019-03-31T23:39:36.005Z,8.80
2019-03-31T23:42:03.145Z,9.13
2019-03-31T23:44:30.003Z,8.57
2019-03-31T23:46:56.612Z,9.43
2019-03-31T23:49:23.478Z,9.60
2019-03-31T23:51:50.066Z,8.60
2019-03-31T23:54:17.003Z,9.18
2019-03-31T23:56:43.668Z,8.63
2019-03-31T23:59:10.541Z,7.73
